Differdange, Luxembourg
Current Conditions -  °F | °C
As of 1:50 AM on Sunday 26 Oct 2014 (Local Time) from ELLX Reporting Station
Clear Clear  
Wind Chill: 48°   Ceiling: Unl
Heat Index: 48°   Visibility: 3mi
Dew Point: 46°   Wind: 3mph
Humidity: 93%   Direction: 280°W
Pressure: 30.24"   Gusts: NA
Location:  49.52°N, 5.89°E
Report Text: ELLX 252350Z 28003KT 5000 R24/0450VP1500U NSC 09/08 Q1024 NOSIG
Loading
Personal Weather Stations






























Interactive Weather Map
Tropical Storm Tracking
New forecast layout! Learn more

10-Day Weather Forecast

Advertisements
Track Severe Weather on mobile